createdAt,value
2022-09-27T00:01:11.216Z,9.30
2022-09-27T00:03:39.516Z,9.30
2022-09-27T00:06:08.916Z,9.20
2022-09-27T00:08:37.482Z,9.10
2022-09-27T00:11:14.002Z,9.10
2022-09-27T00:13:41.646Z,9.10
2022-09-27T00:16:10.667Z,9.20
2022-09-27T00:18:38.270Z,9.20
2022-09-27T00:21:11.424Z,9.20
2022-09-27T00:23:39.587Z,9.10
2022-09-27T00:26:08.539Z,9.10
2022-09-27T00:28:36.211Z,9.10
2022-09-27T00:31:03.998Z,9.10
2022-09-27T00:33:31.415Z,9.10
2022-09-27T00:36:05.848Z,9.10
2022-09-27T00:38:33.224Z,9.00
2022-09-27T00:41:00.669Z,9.00
2022-09-27T00:43:43.287Z,9.00
2022-09-27T00:46:11.672Z,9.00
2022-09-27T00:48:39.000Z,9.00
2022-09-27T00:51:07.796Z,9.00
2022-09-27T00:53:51.858Z,8.90
2022-09-27T00:56:27.529Z,8.90
2022-09-27T00:59:22.386Z,8.80
2022-09-27T01:01:50.437Z,8.80
2022-09-27T01:04:22.957Z,8.70
2022-09-27T01:06:51.187Z,8.70
2022-09-27T01:09:19.103Z,8.60
2022-09-27T01:11:52.197Z,8.60
2022-09-27T01:14:33.485Z,8.60
2022-09-27T01:17:25.316Z,8.50
2022-09-27T01:20:01.319Z,8.50
2022-09-27T01:22:40.197Z,8.60
2022-09-27T01:25:37.940Z,8.50
2022-09-27T01:28:11.095Z,8.40
2022-09-27T01:30:54.282Z,8.40
2022-09-27T01:33:33.836Z,8.40
2022-09-27T01:36:21.073Z,8.40
2022-09-27T01:38:56.620Z,8.40
2022-09-27T01:41:33.444Z,8.40
2022-09-27T01:44:22.184Z,8.40
2022-09-27T01:46:55.764Z,8.40
2022-09-27T01:49:41.102Z,8.40
2022-09-27T01:52:11.670Z,8.40
2022-09-27T01:54:47.927Z,8.40
2022-09-27T01:57:25.123Z,8.40
2022-09-27T02:00:02.682Z,8.30
2022-09-27T02:02:33.582Z,8.40
2022-09-27T02:05:05.618Z,8.50
2022-09-27T02:07:44.669Z,8.50
2022-09-27T02:10:17.532Z,8.40
2022-09-27T02:12:59.162Z,8.50
2022-09-27T02:15:28.210Z,8.50
2022-09-27T02:18:15.823Z,8.40
2022-09-27T02:20:53.062Z,8.40
2022-09-27T02:23:46.917Z,8.20
2022-09-27T02:26:22.743Z,8.20
2022-09-27T02:29:08.909Z,8.10
2022-09-27T02:31:36.644Z,8.10
2022-09-27T02:34:14.446Z,8.10
2022-09-27T02:36:42.466Z,8.10
2022-09-27T02:39:09.941Z,8.10
2022-09-27T02:41:37.318Z,8.10
2022-09-27T02:44:10.125Z,8.10
2022-09-27T02:46:52.472Z,8.20
2022-09-27T02:49:22.678Z,8.20
2022-09-27T02:52:09.099Z,8.20
2022-09-27T02:54:55.779Z,8.20
2022-09-27T02:57:44.394Z,8.20
2022-09-27T03:00:20.147Z,8.20
2022-09-27T03:02:50.409Z,8.20
2022-09-27T03:05:28.439Z,8.30
2022-09-27T03:07:55.935Z,8.30
2022-09-27T03:10:26.313Z,8.30
2022-09-27T03:12:54.757Z,8.30
2022-09-27T03:15:22.051Z,8.30
2022-09-27T03:17:49.286Z,8.30
2022-09-27T03:20:16.816Z,8.30
2022-09-27T03:22:44.331Z,8.30
2022-09-27T03:25:12.191Z,8.20
2022-09-27T03:27:39.539Z,8.30
2022-09-27T03:30:07.900Z,8.30
2022-09-27T03:32:35.456Z,8.30
2022-09-27T03:35:02.863Z,8.30
2022-09-27T03:37:30.283Z,8.30
2022-09-27T03:39:57.810Z,8.40
2022-09-27T03:42:25.504Z,8.40
2022-09-27T03:44:52.912Z,8.40
2022-09-27T03:47:20.219Z,8.40
2022-09-27T03:49:47.680Z,8.40
2022-09-27T03:52:15.224Z,8.30
2022-09-27T03:54:43.171Z,8.20
2022-09-27T03:57:11.025Z,8.30
2022-09-27T03:59:38.439Z,8.30
2022-09-27T04:02:05.835Z,8.30
2022-09-27T04:04:33.132Z,8.20
2022-09-27T04:07:00.514Z,8.20
2022-09-27T04:09:27.942Z,8.10
2022-09-27T04:11:55.415Z,8.20
2022-09-27T04:14:22.656Z,8.20
2022-09-27T04:16:50.253Z,8.20
2022-09-27T04:19:17.648Z,8.20
2022-09-27T04:21:45.006Z,8.20
2022-09-27T04:24:12.317Z,8.10
2022-09-27T04:26:43.059Z,8.20
2022-09-27T04:29:10.553Z,8.20
2022-09-27T04:31:38.225Z,8.20
2022-09-27T04:34:06.190Z,8.20
2022-09-27T04:36:34.038Z,8.30
2022-09-27T04:39:03.240Z,8.30
2022-09-27T04:41:31.782Z,8.40
2022-09-27T04:44:01.504Z,8.40
2022-09-27T04:46:34.414Z,8.50
2022-09-27T04:49:02.337Z,8.50
2022-09-27T04:51:30.036Z,8.60
2022-09-27T04:53:58.534Z,8.60
2022-09-27T04:56:26.465Z,8.70
2022-09-27T04:58:54.220Z,8.60
2022-09-27T05:01:21.812Z,8.70
2022-09-27T05:03:49.146Z,8.90
2022-09-27T05:06:16.431Z,8.90
2022-09-27T05:08:43.765Z,8.90
2022-09-27T05:11:10.983Z,9.00
2022-09-27T05:13:38.398Z,9.10
2022-09-27T05:16:06.163Z,9.20
2022-09-27T05:18:33.778Z,9.20
2022-09-27T05:21:01.335Z,9.20
2022-09-27T05:23:28.656Z,9.20
2022-09-27T05:25:56.775Z,9.30
2022-09-27T05:28:27.021Z,9.30
2022-09-27T05:30:54.466Z,9.30
2022-09-27T05:33:21.928Z,9.30
2022-09-27T05:35:56.697Z,9.40
2022-09-27T05:38:26.026Z,9.40
2022-09-27T05:40:53.293Z,9.40
2022-09-27T05:43:22.104Z,9.50
2022-09-27T05:45:49.447Z,9.60
2022-09-27T05:48:16.799Z,9.60
2022-09-27T05:50:44.403Z,9.70
2022-09-27T05:53:12.066Z,9.60
2022-09-27T05:55:39.375Z,9.60
2022-09-27T05:58:09.059Z,9.70
2022-09-27T06:00:36.904Z,9.70
2022-09-27T06:03:08.284Z,9.70
2022-09-27T06:05:37.997Z,9.80
2022-09-27T06:08:09.069Z,9.80
2022-09-27T06:10:37.462Z,9.70
2022-09-27T06:13:15.919Z,9.80
2022-09-27T06:15:45.246Z,9.80
2022-09-27T06:18:16.542Z,9.80
2022-09-27T06:20:44.486Z,9.90
2022-09-27T06:23:16.927Z,10.00
2022-09-27T06:25:44.850Z,10.00
2022-09-27T06:28:12.200Z,10.10
2022-09-27T06:30:47.652Z,10.20
2022-09-27T06:33:20.034Z,10.20
2022-09-27T06:35:49.504Z,10.30
2022-09-27T06:38:18.374Z,10.30
2022-09-27T06:40:46.379Z,10.30
2022-09-27T06:43:18.660Z,10.40
2022-09-27T06:45:46.951Z,10.50
2022-09-27T06:48:16.342Z,10.50
2022-09-27T06:50:45.973Z,10.60
2022-09-27T06:53:15.492Z,10.70
2022-09-27T06:55:43.844Z,10.70
2022-09-27T06:58:30.778Z,10.80
2022-09-27T07:00:59.009Z,10.90
2022-09-27T07:03:35.348Z,10.90
2022-09-27T07:06:06.517Z,10.90
2022-09-27T07:08:36.194Z,10.90
2022-09-27T07:11:06.811Z,10.90
2022-09-27T07:13:37.342Z,11.00
2022-09-27T07:16:04.716Z,11.00
2022-09-27T07:18:32.132Z,11.10
2022-09-27T07:21:02.035Z,11.20
2022-09-27T07:23:29.505Z,11.20
2022-09-27T07:25:56.876Z,11.20
2022-09-27T07:28:24.138Z,11.30
2022-09-27T07:30:58.928Z,11.40
2022-09-27T07:33:27.307Z,11.50
2022-09-27T07:35:54.606Z,11.70
2022-09-27T07:38:22.024Z,11.70
2022-09-27T07:40:49.362Z,11.80
2022-09-27T07:43:16.978Z,11.80
2022-09-27T07:45:44.310Z,11.80
2022-09-27T07:48:16.173Z,11.90
2022-09-27T07:50:44.118Z,12.00
2022-09-27T07:53:13.993Z,12.00
2022-09-27T07:55:41.534Z,12.10
2022-09-27T07:58:11.640Z,12.10
2022-09-27T08:00:41.180Z,12.10
2022-09-27T08:03:16.569Z,12.00
2022-09-27T08:05:45.676Z,12.10
2022-09-27T08:08:13.176Z,12.10
2022-09-27T08:10:44.582Z,12.20
2022-09-27T08:13:12.735Z,12.20
2022-09-27T08:15:39.950Z,12.30
2022-09-27T08:18:11.541Z,12.30
2022-09-27T08:20:39.792Z,12.20
2022-09-27T08:23:07.339Z,12.20
2022-09-27T08:25:34.657Z,12.20
2022-09-27T08:28:05.035Z,12.30
2022-09-27T08:30:33.365Z,12.30
2022-09-27T08:33:03.551Z,12.30
2022-09-27T08:35:34.272Z,12.30
2022-09-27T08:38:02.946Z,12.40
2022-09-27T08:40:54.945Z,12.30
2022-09-27T08:43:42.027Z,12.20
2022-09-27T08:46:28.001Z,12.20
2022-09-27T08:49:25.374Z,12.20
2022-09-27T08:51:55.822Z,12.20
2022-09-27T08:54:31.320Z,12.20
2022-09-27T08:57:12.958Z,12.20
2022-09-27T09:00:07.180Z,12.20
2022-09-27T09:02:36.408Z,12.20
2022-09-27T09:05:07.925Z,12.30
2022-09-27T09:07:56.464Z,12.30
2022-09-27T09:11:00.740Z,12.40
2022-09-27T09:13:34.190Z,12.50
2022-09-27T09:16:07.537Z,12.50
2022-09-27T09:19:01.581Z,12.50
2022-09-27T09:21:41.781Z,12.50
2022-09-27T09:24:33.626Z,12.50
2022-09-27T09:27:22.240Z,12.60
2022-09-27T09:30:01.727Z,12.60
2022-09-27T09:32:32.364Z,12.60
2022-09-27T09:35:07.520Z,12.70
2022-09-27T09:37:37.285Z,12.70
2022-09-27T09:40:17.142Z,12.80
2022-09-27T09:43:01.774Z,12.80
2022-09-27T09:45:37.168Z,12.70
2022-09-27T09:48:30.227Z,12.70
2022-09-27T09:51:01.924Z,12.70
2022-09-27T09:53:42.021Z,12.70
2022-09-27T09:56:22.602Z,12.70
2022-09-27T09:59:02.652Z,12.70
2022-09-27T10:01:45.864Z,12.70
2022-09-27T10:04:23.591Z,12.70
2022-09-27T10:06:52.425Z,12.70
2022-09-27T10:09:26.975Z,12.70
2022-09-27T10:11:54.453Z,12.70
2022-09-27T10:14:23.077Z,12.70
2022-09-27T10:16:57.234Z,12.70
2022-09-27T10:19:38.094Z,12.70
2022-09-27T10:22:33.101Z,12.70
2022-09-27T10:25:03.642Z,12.80
2022-09-27T10:27:52.500Z,12.80
2022-09-27T10:30:29.626Z,12.70
2022-09-27T10:33:09.720Z,12.80
2022-09-27T10:35:40.954Z,12.80
2022-09-27T10:38:24.704Z,12.80
2022-09-27T10:40:57.569Z,12.70
2022-09-27T10:43:29.784Z,12.70
2022-09-27T10:46:10.128Z,12.70
2022-09-27T10:48:41.437Z,12.80
2022-09-27T10:51:30.030Z,12.80
2022-09-27T10:54:02.080Z,12.80
2022-09-27T10:56:33.119Z,12.80
2022-09-27T10:59:03.469Z,12.80
2022-09-27T11:02:00.426Z,12.80
2022-09-27T11:04:33.724Z,12.80
2022-09-27T11:07:30.469Z,12.70
2022-09-27T11:10:05.345Z,12.70
2022-09-27T11:12:38.137Z,12.60
2022-09-27T11:15:14.704Z,12.50
2022-09-27T11:18:02.398Z,12.40
2022-09-27T11:20:36.864Z,12.40
2022-09-27T11:23:28.650Z,12.40
2022-09-27T11:26:11.078Z,12.40
2022-09-27T11:29:04.747Z,12.40
2022-09-27T11:31:49.303Z,12.40
2022-09-27T11:34:50.447Z,12.50
2022-09-27T11:37:36.456Z,12.50
2022-09-27T11:40:45.130Z,12.50
2022-09-27T11:43:38.134Z,12.60
2022-09-27T11:46:26.182Z,12.50
2022-09-27T11:49:18.733Z,12.40
2022-09-27T11:52:04.523Z,12.50
2022-09-27T11:54:41.299Z,12.50
2022-09-27T11:57:38.036Z,12.50
2022-09-27T12:00:20.144Z,12.50
2022-09-27T12:03:07.907Z,12.60
2022-09-27T12:05:46.631Z,12.60
2022-09-27T12:08:44.698Z,12.60
2022-09-27T12:11:28.390Z,12.50
2022-09-27T12:14:28.929Z,12.60
2022-09-27T12:16:58.830Z,12.60
2022-09-27T12:19:39.100Z,12.70
2022-09-27T12:22:13.065Z,12.70
2022-09-27T12:24:41.177Z,12.80
2022-09-27T12:27:16.909Z,12.80
2022-09-27T12:29:47.584Z,12.80
2022-09-27T12:32:39.676Z,12.80
2022-09-27T12:35:15.356Z,12.80
2022-09-27T12:37:45.526Z,12.80
2022-09-27T12:40:31.283Z,12.80
2022-09-27T12:43:10.413Z,12.90
2022-09-27T12:46:04.962Z,12.90
2022-09-27T12:48:55.234Z,12.90
2022-09-27T12:51:24.935Z,12.90
2022-09-27T12:54:13.908Z,12.90
2022-09-27T12:57:21.714Z,12.90
2022-09-27T13:00:12.995Z,12.90
2022-09-27T13:03:15.714Z,12.90
2022-09-27T13:06:05.354Z,12.90
2022-09-27T13:08:54.257Z,12.80
2022-09-27T13:11:40.026Z,12.80
2022-09-27T13:14:21.833Z,12.80
2022-09-27T13:16:49.683Z,12.70
2022-09-27T13:19:37.994Z,12.70
2022-09-27T13:22:08.383Z,12.70
2022-09-27T13:24:39.630Z,12.70
2022-09-27T13:27:28.651Z,12.80
2022-09-27T13:30:11.420Z,12.70
2022-09-27T13:33:01.928Z,12.80
2022-09-27T13:35:29.632Z,12.70
2022-09-27T13:38:01.712Z,12.80
2022-09-27T13:40:40.725Z,12.70
2022-09-27T13:43:10.952Z,12.70
2022-09-27T13:45:55.547Z,12.70
2022-09-27T13:48:28.005Z,12.70
2022-09-27T13:51:27.495Z,12.70
2022-09-27T13:54:01.518Z,12.60
2022-09-27T13:56:40.354Z,12.60
2022-09-27T13:59:38.213Z,12.60
2022-09-27T14:02:31.989Z,12.60
2022-09-27T14:05:01.644Z,12.60
2022-09-27T14:07:41.735Z,12.60
2022-09-27T14:10:17.290Z,12.60
2022-09-27T14:12:45.643Z,12.60
2022-09-27T14:15:25.435Z,12.60
2022-09-27T14:17:54.098Z,12.60
2022-09-27T14:20:50.668Z,12.60
2022-09-27T14:23:23.914Z,12.60
2022-09-27T14:25:54.718Z,12.70
2022-09-27T14:28:24.958Z,12.70
2022-09-27T14:31:13.505Z,12.70
2022-09-27T14:33:40.891Z,12.70
2022-09-27T14:36:41.536Z,12.80
2022-09-27T14:39:21.333Z,12.80
2022-09-27T14:41:48.843Z,12.90
2022-09-27T14:44:23.627Z,12.90
2022-09-27T14:47:21.522Z,13.00
2022-09-27T14:50:00.471Z,13.10
2022-09-27T14:52:33.348Z,13.20
2022-09-27T14:55:06.239Z,13.10
2022-09-27T14:57:36.210Z,13.10
2022-09-27T15:00:23.272Z,13.10
2022-09-27T15:02:55.339Z,13.10
2022-09-27T15:05:28.576Z,13.10
2022-09-27T15:07:58.550Z,13.10
2022-09-27T15:10:31.630Z,13.00
2022-09-27T15:13:01.687Z,13.00
2022-09-27T15:15:40.554Z,13.00
2022-09-27T15:18:34.819Z,12.90
2022-09-27T15:21:03.154Z,12.90
2022-09-27T15:23:36.699Z,12.80
2022-09-27T15:26:22.289Z,12.80
2022-09-27T15:28:55.191Z,12.80
2022-09-27T15:31:36.747Z,12.80
2022-09-27T15:34:08.069Z,12.80
2022-09-27T15:36:53.311Z,12.80
2022-09-27T15:39:36.226Z,12.70
2022-09-27T15:42:06.559Z,12.70
2022-09-27T15:44:37.179Z,12.70
2022-09-27T15:47:05.188Z,12.70
2022-09-27T15:49:36.183Z,12.60
2022-09-27T15:52:05.472Z,12.60
2022-09-27T15:54:35.980Z,12.60
2022-09-27T15:57:06.213Z,12.60
2022-09-27T15:59:36.155Z,12.60
2022-09-27T16:02:13.320Z,12.60
2022-09-27T16:04:40.636Z,12.60
2022-09-27T16:07:10.304Z,12.50
2022-09-27T16:09:38.459Z,12.50
2022-09-27T16:12:05.742Z,12.50
2022-09-27T16:14:33.095Z,12.50
2022-09-27T16:17:00.473Z,12.50
2022-09-27T16:19:27.938Z,12.50
2022-09-27T16:21:55.736Z,12.50
2022-09-27T16:24:25.663Z,12.40
2022-09-27T16:26:53.067Z,12.40
2022-09-27T16:29:20.430Z,12.40
2022-09-27T16:31:47.952Z,12.40
2022-09-27T16:34:16.003Z,12.40
2022-09-27T16:36:43.806Z,12.40
2022-09-27T16:39:13.926Z,12.40
2022-09-27T16:41:41.752Z,12.30
2022-09-27T16:44:13.202Z,12.30
2022-09-27T16:46:44.435Z,12.30
2022-09-27T16:49:32.974Z,12.30
2022-09-27T16:52:01.573Z,12.30
2022-09-27T16:54:35.248Z,12.30
2022-09-27T16:57:04.784Z,12.30
2022-09-27T16:59:32.926Z,12.30
2022-09-27T17:02:00.567Z,12.30
2022-09-27T17:04:28.953Z,12.30
2022-09-27T17:06:57.319Z,12.20
2022-09-27T17:09:25.366Z,12.20
2022-09-27T17:11:53.037Z,12.10
2022-09-27T17:14:20.860Z,12.00
2022-09-27T17:16:48.847Z,12.00
2022-09-27T17:19:18.673Z,12.00
2022-09-27T17:21:46.883Z,12.10
2022-09-27T17:24:14.359Z,12.10
2022-09-27T17:26:42.329Z,12.10
2022-09-27T17:29:13.434Z,12.20
2022-09-27T17:31:42.339Z,12.10
2022-09-27T17:34:13.045Z,12.20
2022-09-27T17:36:43.418Z,12.20
2022-09-27T17:39:15.409Z,12.10
2022-09-27T17:41:44.088Z,12.00
2022-09-27T17:44:15.837Z,12.00
2022-09-27T17:46:43.398Z,12.00
2022-09-27T17:49:31.003Z,12.00
2022-09-27T17:51:58.544Z,11.90
2022-09-27T17:54:28.942Z,11.80
2022-09-27T17:56:56.743Z,11.70
2022-09-27T17:59:24.077Z,11.60
2022-09-27T18:01:52.493Z,11.60
2022-09-27T18:04:20.130Z,11.50
2022-09-27T18:06:48.103Z,11.40
2022-09-27T18:09:17.120Z,11.40
2022-09-27T18:11:45.753Z,11.30
2022-09-27T18:14:13.591Z,11.30
2022-09-27T18:16:46.035Z,11.20
2022-09-27T18:19:17.381Z,11.20
2022-09-27T18:21:45.014Z,11.20
2022-09-27T18:24:15.095Z,11.10
2022-09-27T18:26:43.306Z,11.10
2022-09-27T18:29:12.781Z,11.00
2022-09-27T18:31:42.124Z,11.00
2022-09-27T18:34:12.288Z,11.00
2022-09-27T18:36:42.434Z,11.00
2022-09-27T18:39:17.595Z,10.90
2022-09-27T18:41:45.791Z,10.90
2022-09-27T18:44:14.919Z,10.90
2022-09-27T18:46:42.465Z,10.90
2022-09-27T18:49:12.524Z,10.80
2022-09-27T18:51:43.997Z,10.80
2022-09-27T18:54:20.350Z,10.80
2022-09-27T18:56:49.817Z,10.70
2022-09-27T18:59:17.783Z,10.70
2022-09-27T19:01:46.108Z,10.60
2022-09-27T19:04:24.410Z,10.60
2022-09-27T19:06:56.070Z,10.50
2022-09-27T19:09:26.736Z,10.50
2022-09-27T19:11:54.252Z,10.50
2022-09-27T19:14:22.833Z,10.50
2022-09-27T19:16:51.217Z,10.50
2022-09-27T19:19:19.878Z,10.50
2022-09-27T19:21:47.413Z,10.50
2022-09-27T19:24:16.138Z,10.50
2022-09-27T19:26:44.214Z,10.50
2022-09-27T19:29:13.334Z,10.50
2022-09-27T19:31:42.069Z,10.50
2022-09-27T19:34:11.187Z,10.40
2022-09-27T19:36:38.535Z,10.40
2022-09-27T19:39:05.796Z,10.40
2022-09-27T19:41:33.352Z,10.40
2022-09-27T19:44:00.918Z,10.40
2022-09-27T19:46:28.337Z,10.40
2022-09-27T19:48:56.445Z,10.30
2022-09-27T19:51:26.551Z,10.30
2022-09-27T19:53:54.855Z,10.30
2022-09-27T19:56:23.094Z,10.20
2022-09-27T19:58:50.998Z,10.20
2022-09-27T20:01:21.557Z,10.20
2022-09-27T20:03:51.037Z,10.10
2022-09-27T20:06:20.396Z,10.10
2022-09-27T20:08:51.276Z,10.10
2022-09-27T20:11:23.409Z,10.00
2022-09-27T20:13:53.529Z,10.00
2022-09-27T20:16:23.873Z,10.00
2022-09-27T20:18:53.992Z,9.90
2022-09-27T20:21:23.471Z,9.90
2022-09-27T20:23:52.791Z,9.90
2022-09-27T20:26:22.365Z,9.80
2022-09-27T20:28:52.284Z,9.80
2022-09-27T20:31:26.043Z,9.70
2022-09-27T20:33:53.649Z,9.70
2022-09-27T20:36:22.917Z,9.60
2022-09-27T20:38:52.668Z,9.60
2022-09-27T20:41:22.494Z,9.50
2022-09-27T20:43:53.498Z,9.50
2022-09-27T20:46:22.224Z,9.40
2022-09-27T20:48:54.995Z,9.30
2022-09-27T20:51:23.652Z,9.20
2022-09-27T20:53:51.839Z,9.20
2022-09-27T20:56:25.751Z,9.20
2022-09-27T20:58:55.244Z,9.20
2022-09-27T21:01:24.170Z,9.20
2022-09-27T21:04:00.079Z,9.10
2022-09-27T21:06:28.182Z,9.10
2022-09-27T21:08:55.683Z,9.10
2022-09-27T21:11:23.224Z,9.10
2022-09-27T21:13:51.614Z,9.20
2022-09-27T21:16:27.655Z,9.30
2022-09-27T21:18:57.287Z,9.40
2022-09-27T21:21:25.692Z,9.40
2022-09-27T21:23:59.665Z,9.40
2022-09-27T21:26:32.264Z,9.40
2022-09-27T21:29:02.099Z,9.40
2022-09-27T21:31:32.236Z,9.40
2022-09-27T21:34:02.026Z,9.40
2022-09-27T21:36:37.708Z,9.40
2022-09-27T21:39:08.889Z,9.30
2022-09-27T21:41:39.212Z,9.20
2022-09-27T21:44:07.427Z,9.10
2022-09-27T21:46:34.833Z,9.00
2022-09-27T21:49:02.611Z,9.00
2022-09-27T21:51:31.320Z,8.90
2022-09-27T21:54:01.329Z,8.90
2022-09-27T21:56:31.188Z,8.90
2022-09-27T21:58:59.024Z,8.80
2022-09-27T22:01:29.939Z,8.80
2022-09-27T22:03:58.162Z,8.70
2022-09-27T22:06:28.043Z,8.70
2022-09-27T22:08:56.540Z,8.80
2022-09-27T22:11:37.009Z,8.70
2022-09-27T22:14:07.172Z,8.70
2022-09-27T22:16:34.612Z,8.60
2022-09-27T22:19:02.671Z,8.60
2022-09-27T22:21:35.588Z,8.60
2022-09-27T22:24:08.007Z,8.60
2022-09-27T22:26:37.847Z,8.60
2022-09-27T22:29:06.145Z,8.60
2022-09-27T22:31:33.763Z,8.50
2022-09-27T22:34:03.929Z,8.50
2022-09-27T22:36:33.177Z,8.50
2022-09-27T22:39:00.971Z,8.50
2022-09-27T22:41:30.741Z,8.50
2022-09-27T22:43:58.341Z,8.50
2022-09-27T22:46:26.766Z,8.50
2022-09-27T22:48:56.045Z,8.40
2022-09-27T22:51:23.323Z,8.40
2022-09-27T22:53:50.550Z,8.40
2022-09-27T22:56:20.588Z,8.40
2022-09-27T22:58:49.011Z,8.40
2022-09-27T23:01:17.554Z,8.40
2022-09-27T23:03:46.032Z,8.40
2022-09-27T23:06:15.052Z,8.40
2022-09-27T23:08:43.002Z,8.40
2022-09-27T23:11:15.444Z,8.40
2022-09-27T23:13:44.038Z,8.40
2022-09-27T23:16:17.362Z,8.40
2022-09-27T23:18:44.859Z,8.40
2022-09-27T23:21:13.366Z,8.40
2022-09-27T23:23:42.879Z,8.40
2022-09-27T23:26:13.316Z,8.30
2022-09-27T23:28:41.260Z,8.20
2022-09-27T23:31:14.532Z,8.20
2022-09-27T23:33:44.032Z,8.10
2022-09-27T23:36:15.444Z,8.10
2022-09-27T23:38:45.861Z,8.00
2022-09-27T23:41:14.621Z,8.00
2022-09-27T23:43:42.621Z,7.90
2022-09-27T23:46:10.987Z,7.90
2022-09-27T23:48:38.660Z,7.90
2022-09-27T23:51:10.460Z,7.90
2022-09-27T23:53:39.762Z,7.90
2022-09-27T23:56:13.672Z,7.90
2022-09-27T23:58:44.332Z,7.90
